sensor_id;sensor_type;location;lat;lon;timestamp;temperature;humidity
18067;DHT22;9158;51.528;7.192;2022-09-09T00:00:11;15.20;99.90
18067;DHT22;9158;51.528;7.192;2022-09-09T00:00:47;15.20;99.90
18067;DHT22;9158;51.528;7.192;2022-09-09T00:01:29;15.20;99.90
18067;DHT22;9158;51.528;7.192;2022-09-09T00:02:10;15.20;99.90
18067;DHT22;9158;51.528;7.192;2022-09-09T00:02:54;15.20;99.90
18067;DHT22;9158;51.528;7.192;2022-09-09T00:03:27;15.10;99.90
18067;DHT22;9158;51.528;7.192;2022-09-09T00:04:03;15.20;99.90
18067;DHT22;9158;51.528;7.192;2022-09-09T00:04:37;15.10;99.90
18067;DHT22;9158;51.528;7.192;2022-09-09T00:05:16;15.10;99.90
18067;DHT22;9158;51.528;7.192;2022-09-09T00:05:57;15.10;99.90
18067;DHT22;9158;51.528;7.192;2022-09-09T00:06:31;15.10;99.90
18067;DHT22;9158;51.528;7.192;2022-09-09T00:07:13;15.10;99.90
18067;DHT22;9158;51.528;7.192;2022-09-09T00:07:48;15.10;99.90
18067;DHT22;9158;51.528;7.192;2022-09-09T00:08:24;15.10;99.90
18067;DHT22;9158;51.528;7.192;2022-09-09T00:09:02;15.10;99.90
18067;DHT22;9158;51.528;7.192;2022-09-09T00:09:40;15.10;99.90
18067;DHT22;9158;51.528;7.192;2022-09-09T00:10:22;15.10;99.90
18067;DHT22;9158;51.528;7.192;2022-09-09T00:11:00;15.10;99.90
18067;DHT22;9158;51.528;7.192;2022-09-09T00:11:40;15.10;99.90
18067;DHT22;9158;51.528;7.192;2022-09-09T00:12:14;15.10;99.90
18067;DHT22;9158;51.528;7.192;2022-09-09T00:12:53;15.10;99.90
18067;DHT22;9158;51.528;7.192;2022-09-09T00:13:30;15.10;99.90
18067;DHT22;9158;51.528;7.192;2022-09-09T00:14:08;15.10;99.90
18067;DHT22;9158;51.528;7.192;2022-09-09T00:14:48;15.10;99.90
18067;DHT22;9158;51.528;7.192;2022-09-09T00:15:24;15.10;99.90
18067;DHT22;9158;51.528;7.192;2022-09-09T00:16:00;15.10;99.90
18067;DHT22;9158;51.528;7.192;2022-09-09T00:16:39;15.10;99.90
18067;DHT22;9158;51.528;7.192;2022-09-09T00:17:16;15.10;99.90
18067;DHT22;9158;51.528;7.192;2022-09-09T00:17:53;15.10;99.90
18067;DHT22;9158;51.528;7.192;2022-09-09T00:18:33;15.10;99.90
18067;DHT22;9158;51.528;7.192;2022-09-09T00:19:13;15.10;99.90
18067;DHT22;9158;51.528;7.192;2022-09-09T00:19:54;15.10;99.90
18067;DHT22;9158;51.528;7.192;2022-09-09T00:20:32;15.10;99.90
18067;DHT22;9158;51.528;7.192;2022-09-09T00:21:08;15.10;99.90
18067;DHT22;9158;51.528;7.192;2022-09-09T00:21:47;15.10;99.90
18067;DHT22;9158;51.528;7.192;2022-09-09T00:22:25;15.10;99.90
18067;DHT22;9158;51.528;7.192;2022-09-09T00:23:03;15.10;99.90
18067;DHT22;9158;51.528;7.192;2022-09-09T00:23:39;15.10;99.90
18067;DHT22;9158;51.528;7.192;2022-09-09T00:24:16;15.10;99.90
18067;DHT22;9158;51.528;7.192;2022-09-09T00:24:52;15.10;99.90
18067;DHT22;9158;51.528;7.192;2022-09-09T00:25:31;15.10;99.90
18067;DHT22;9158;51.528;7.192;2022-09-09T00:26:08;15.10;99.90
18067;DHT22;9158;51.528;7.192;2022-09-09T00:26:43;15.10;99.90
18067;DHT22;9158;51.528;7.192;2022-09-09T00:27:22;15.10;99.90
18067;DHT22;9158;51.528;7.192;2022-09-09T00:27:54;15.10;99.90
18067;DHT22;9158;51.528;7.192;2022-09-09T00:28:27;15.10;99.90
18067;DHT22;9158;51.528;7.192;2022-09-09T00:29:09;15.10;99.90
18067;DHT22;9158;51.528;7.192;2022-09-09T00:29:46;15.10;99.90
18067;DHT22;9158;51.528;7.192;2022-09-09T00:30:20;15.10;99.90
18067;DHT22;9158;51.528;7.192;2022-09-09T00:30:53;15.10;99.90
18067;DHT22;9158;51.528;7.192;2022-09-09T00:31:29;15.10;99.90
18067;DHT22;9158;51.528;7.192;2022-09-09T00:32:11;15.10;99.90
18067;DHT22;9158;51.528;7.192;2022-09-09T00:32:44;15.10;99.90
18067;DHT22;9158;51.528;7.192;2022-09-09T00:33:17;15.10;99.90
18067;DHT22;9158;51.528;7.192;2022-09-09T00:33:52;15.10;99.90
18067;DHT22;9158;51.528;7.192;2022-09-09T00:34:26;15.10;99.90
18067;DHT22;9158;51.528;7.192;2022-09-09T00:35:02;15.10;99.90
18067;DHT22;9158;51.528;7.192;2022-09-09T00:35:37;15.10;99.90
18067;DHT22;9158;51.528;7.192;2022-09-09T00:36:14;15.10;99.90
18067;DHT22;9158;51.528;7.192;2022-09-09T00:36:48;15.10;99.90
18067;DHT22;9158;51.528;7.192;2022-09-09T00:37:20;15.10;99.90
18067;DHT22;9158;51.528;7.192;2022-09-09T00:38:00;15.10;99.90
18067;DHT22;9158;51.528;7.192;2022-09-09T00:38:35;15.10;99.90
18067;DHT22;9158;51.528;7.192;2022-09-09T00:39:12;15.10;99.90
18067;DHT22;9158;51.528;7.192;2022-09-09T00:39:46;15.10;99.90
18067;DHT22;9158;51.528;7.192;2022-09-09T00:40:24;15.10;99.90
18067;DHT22;9158;51.528;7.192;2022-09-09T00:41:01;15.10;99.90
18067;DHT22;9158;51.528;7.192;2022-09-09T00:41:45;15.10;99.90
18067;DHT22;9158;51.528;7.192;2022-09-09T00:42:23;15.10;99.90
18067;DHT22;9158;51.528;7.192;2022-09-09T00:43:18;15.10;99.90
18067;DHT22;9158;51.528;7.192;2022-09-09T00:43:56;15.10;99.90
18067;DHT22;9158;51.528;7.192;2022-09-09T00:44:31;15.20;99.90
18067;DHT22;9158;51.528;7.192;2022-09-09T00:45:19;15.10;99.90
18067;DHT22;9158;51.528;7.192;2022-09-09T00:46:23;15.10;99.90
18067;DHT22;9158;51.528;7.192;2022-09-09T00:47:17;15.10;99.90
18067;DHT22;9158;51.528;7.192;2022-09-09T00:47:52;15.10;99.90
18067;DHT22;9158;51.528;7.192;2022-09-09T00:48:30;15.10;99.90
18067;DHT22;9158;51.528;7.192;2022-09-09T00:49:09;15.10;99.90
18067;DHT22;9158;51.528;7.192;2022-09-09T00:49:56;15.10;99.90
18067;DHT22;9158;51.528;7.192;2022-09-09T00:50:39;15.10;99.90
18067;DHT22;9158;51.528;7.192;2022-09-09T00:51:17;15.10;99.90
18067;DHT22;9158;51.528;7.192;2022-09-09T00:52:02;15.20;99.90
18067;DHT22;9158;51.528;7.192;2022-09-09T00:52:44;15.10;99.90
18067;DHT22;9158;51.528;7.192;2022-09-09T00:53:27;15.10;99.90
18067;DHT22;9158;51.528;7.192;2022-09-09T00:54:15;15.20;99.90
18067;DHT22;9158;51.528;7.192;2022-09-09T00:54:54;15.20;99.90
18067;DHT22;9158;51.528;7.192;2022-09-09T00:55:36;15.20;99.90
18067;DHT22;9158;51.528;7.192;2022-09-09T00:56:14;15.20;99.90
18067;DHT22;9158;51.528;7.192;2022-09-09T00:56:52;15.20;99.90
18067;DHT22;9158;51.528;7.192;2022-09-09T00:57:30;15.10;99.90
18067;DHT22;9158;51.528;7.192;2022-09-09T00:58:01;15.10;99.90
18067;DHT22;9158;51.528;7.192;2022-09-09T00:58:32;15.10;99.90
18067;DHT22;9158;51.528;7.192;2022-09-09T00:59:12;15.10;99.90
18067;DHT22;9158;51.528;7.192;2022-09-09T00:59:48;15.10;99.90
18067;DHT22;9158;51.528;7.192;2022-09-09T01:00:23;15.10;99.90
18067;DHT22;9158;51.528;7.192;2022-09-09T01:00:59;15.10;99.90
18067;DHT22;9158;51.528;7.192;2022-09-09T01:01:32;15.10;99.90
18067;DHT22;9158;51.528;7.192;2022-09-09T01:02:07;15.10;99.90
18067;DHT22;9158;51.528;7.192;2022-09-09T01:02:58;15.10;99.90
18067;DHT22;9158;51.528;7.192;2022-09-09T01:03:35;15.20;99.90
18067;DHT22;9158;51.528;7.192;2022-09-09T01:04:12;15.20;99.90
18067;DHT22;9158;51.528;7.192;2022-09-09T01:04:46;15.20;99.90
18067;DHT22;9158;51.528;7.192;2022-09-09T01:05:22;15.20;99.90
18067;DHT22;9158;51.528;7.192;2022-09-09T01:06:11;15.20;99.90
18067;DHT22;9158;51.528;7.192;2022-09-09T01:07:00;15.20;99.90
18067;DHT22;9158;51.528;7.192;2022-09-09T01:07:33;15.20;99.90
18067;DHT22;9158;51.528;7.192;2022-09-09T01:08:11;15.20;99.90
18067;DHT22;9158;51.528;7.192;2022-09-09T01:09:07;15.20;99.90
18067;DHT22;9158;51.528;7.192;2022-09-09T01:09:50;15.20;99.90
18067;DHT22;9158;51.528;7.192;2022-09-09T01:10:27;15.20;99.90
18067;DHT22;9158;51.528;7.192;2022-09-09T01:11:02;15.20;99.90
18067;DHT22;9158;51.528;7.192;2022-09-09T01:11:46;15.20;99.90
18067;DHT22;9158;51.528;7.192;2022-09-09T01:12:25;15.20;99.90
18067;DHT22;9158;51.528;7.192;2022-09-09T01:13:04;15.20;99.90
18067;DHT22;9158;51.528;7.192;2022-09-09T01:13:42;15.20;99.90
18067;DHT22;9158;51.528;7.192;2022-09-09T01:14:27;15.20;99.90
18067;DHT22;9158;51.528;7.192;2022-09-09T01:15:07;15.20;99.90
18067;DHT22;9158;51.528;7.192;2022-09-09T01:15:42;15.20;99.90
18067;DHT22;9158;51.528;7.192;2022-09-09T01:16:16;15.20;99.90
18067;DHT22;9158;51.528;7.192;2022-09-09T01:16:48;15.20;99.90
18067;DHT22;9158;51.528;7.192;2022-09-09T01:17:23;15.20;99.90
18067;DHT22;9158;51.528;7.192;2022-09-09T01:18:08;15.10;99.90
18067;DHT22;9158;51.528;7.192;2022-09-09T01:18:46;15.20;99.90
18067;DHT22;9158;51.528;7.192;2022-09-09T01:19:23;15.20;99.90
18067;DHT22;9158;51.528;7.192;2022-09-09T01:20:02;15.20;99.90
18067;DHT22;9158;51.528;7.192;2022-09-09T01:20:47;15.20;99.90
18067;DHT22;9158;51.528;7.192;2022-09-09T01:21:26;15.20;99.90
18067;DHT22;9158;51.528;7.192;2022-09-09T01:22:10;15.20;99.90
18067;DHT22;9158;51.528;7.192;2022-09-09T01:22:52;15.20;99.90
18067;DHT22;9158;51.528;7.192;2022-09-09T01:23:40;15.20;99.90
18067;DHT22;9158;51.528;7.192;2022-09-09T01:24:49;15.20;99.90
18067;DHT22;9158;51.528;7.192;2022-09-09T01:26:13;15.10;99.90
18067;DHT22;9158;51.528;7.192;2022-09-09T01:26:48;15.10;99.90
18067;DHT22;9158;51.528;7.192;2022-09-09T01:27:32;15.10;99.90
18067;DHT22;9158;51.528;7.192;2022-09-09T01:28:08;15.10;99.90
18067;DHT22;9158;51.528;7.192;2022-09-09T01:28:43;15.10;99.90
18067;DHT22;9158;51.528;7.192;2022-09-09T01:29:19;15.20;99.90
18067;DHT22;9158;51.528;7.192;2022-09-09T01:29:51;15.20;99.90
18067;DHT22;9158;51.528;7.192;2022-09-09T01:30:24;15.10;99.90
18067;DHT22;9158;51.528;7.192;2022-09-09T01:30:57;15.20;99.90
18067;DHT22;9158;51.528;7.192;2022-09-09T01:31:34;15.10;99.90
18067;DHT22;9158;51.528;7.192;2022-09-09T01:32:38;15.20;99.90
18067;DHT22;9158;51.528;7.192;2022-09-09T01:33:13;15.20;99.90
18067;DHT22;9158;51.528;7.192;2022-09-09T01:33:45;15.20;99.90
18067;DHT22;9158;51.528;7.192;2022-09-09T01:34:16;15.10;99.90
18067;DHT22;9158;51.528;7.192;2022-09-09T01:34:50;15.20;99.90
18067;DHT22;9158;51.528;7.192;2022-09-09T01:35:31;15.20;99.90
18067;DHT22;9158;51.528;7.192;2022-09-09T01:36:09;15.20;99.90
18067;DHT22;9158;51.528;7.192;2022-09-09T01:36:57;15.10;99.90
18067;DHT22;9158;51.528;7.192;2022-09-09T01:37:28;15.10;99.90
18067;DHT22;9158;51.528;7.192;2022-09-09T01:38:00;15.10;99.90
18067;DHT22;9158;51.528;7.192;2022-09-09T01:38:33;15.10;99.90
18067;DHT22;9158;51.528;7.192;2022-09-09T01:39:05;15.10;99.90
18067;DHT22;9158;51.528;7.192;2022-09-09T01:39:39;15.10;99.90
18067;DHT22;9158;51.528;7.192;2022-09-09T01:40:16;15.10;99.90
18067;DHT22;9158;51.528;7.192;2022-09-09T01:40:47;15.10;99.90
18067;DHT22;9158;51.528;7.192;2022-09-09T01:41:20;15.10;99.90
18067;DHT22;9158;51.528;7.192;2022-09-09T01:42:11;15.10;99.90
18067;DHT22;9158;51.528;7.192;2022-09-09T01:42:43;15.10;99.90
18067;DHT22;9158;51.528;7.192;2022-09-09T01:43:14;15.10;99.90
18067;DHT22;9158;51.528;7.192;2022-09-09T01:43:46;15.10;99.90
18067;DHT22;9158;51.528;7.192;2022-09-09T01:44:19;15.00;99.90
18067;DHT22;9158;51.528;7.192;2022-09-09T01:44:50;15.10;99.90
18067;DHT22;9158;51.528;7.192;2022-09-09T01:45:23;15.00;99.90
18067;DHT22;9158;51.528;7.192;2022-09-09T01:45:56;15.10;99.90
18067;DHT22;9158;51.528;7.192;2022-09-09T01:46:29;15.00;99.90
18067;DHT22;9158;51.528;7.192;2022-09-09T01:47:02;15.10;99.90
18067;DHT22;9158;51.528;7.192;2022-09-09T01:47:34;15.00;99.90
18067;DHT22;9158;51.528;7.192;2022-09-09T01:48:22;15.00;99.90
18067;DHT22;9158;51.528;7.192;2022-09-09T01:49:07;15.10;99.90
18067;DHT22;9158;51.528;7.192;2022-09-09T01:49:39;15.00;99.90
18067;DHT22;9158;51.528;7.192;2022-09-09T01:50:21;15.00;99.90
18067;DHT22;9158;51.528;7.192;2022-09-09T01:50:52;15.00;99.90
18067;DHT22;9158;51.528;7.192;2022-09-09T01:51:23;15.10;99.90
18067;DHT22;9158;51.528;7.192;2022-09-09T01:51:56;15.10;99.90
18067;DHT22;9158;51.528;7.192;2022-09-09T01:52:34;15.10;99.90
18067;DHT22;9158;51.528;7.192;2022-09-09T01:53:07;15.10;99.90
18067;DHT22;9158;51.528;7.192;2022-09-09T01:53:39;15.10;99.90
18067;DHT22;9158;51.528;7.192;2022-09-09T01:54:13;15.10;99.90
18067;DHT22;9158;51.528;7.192;2022-09-09T01:54:45;15.10;99.90
18067;DHT22;9158;51.528;7.192;2022-09-09T01:55:22;15.10;99.90
18067;DHT22;9158;51.528;7.192;2022-09-09T01:56:07;15.10;99.90
18067;DHT22;9158;51.528;7.192;2022-09-09T01:56:56;15.10;99.90
18067;DHT22;9158;51.528;7.192;2022-09-09T01:57:41;15.10;99.90
18067;DHT22;9158;51.528;7.192;2022-09-09T01:58:25;15.10;99.90
18067;DHT22;9158;51.528;7.192;2022-09-09T01:59:07;15.20;99.90
18067;DHT22;9158;51.528;7.192;2022-09-09T01:59:50;15.10;99.90
18067;DHT22;9158;51.528;7.192;2022-09-09T02:00:22;15.10;99.90
18067;DHT22;9158;51.528;7.192;2022-09-09T02:01:04;15.10;99.90
18067;DHT22;9158;51.528;7.192;2022-09-09T02:01:46;15.20;99.90
18067;DHT22;9158;51.528;7.192;2022-09-09T02:02:26;15.20;99.90
18067;DHT22;9158;51.528;7.192;2022-09-09T02:03:18;15.20;99.90
18067;DHT22;9158;51.528;7.192;2022-09-09T02:03:59;15.20;99.90
18067;DHT22;9158;51.528;7.192;2022-09-09T02:04:38;15.20;99.90
18067;DHT22;9158;51.528;7.192;2022-09-09T02:05:24;15.20;99.90
18067;DHT22;9158;51.528;7.192;2022-09-09T02:06:08;15.20;99.90
18067;DHT22;9158;51.528;7.192;2022-09-09T02:06:46;15.20;99.90
18067;DHT22;9158;51.528;7.192;2022-09-09T02:07:34;15.20;99.90
18067;DHT22;9158;51.528;7.192;2022-09-09T02:08:17;15.20;99.90
18067;DHT22;9158;51.528;7.192;2022-09-09T02:09:04;15.20;99.90
18067;DHT22;9158;51.528;7.192;2022-09-09T02:09:39;15.20;99.90
18067;DHT22;9158;51.528;7.192;2022-09-09T02:10:19;15.20;99.90
18067;DHT22;9158;51.528;7.192;2022-09-09T02:11:03;15.20;99.90
18067;DHT22;9158;51.528;7.192;2022-09-09T02:11:44;15.20;99.90
18067;DHT22;9158;51.528;7.192;2022-09-09T02:12:30;15.20;99.90
18067;DHT22;9158;51.528;7.192;2022-09-09T02:13:07;15.20;99.90
18067;DHT22;9158;51.528;7.192;2022-09-09T02:13:43;15.20;99.90
18067;DHT22;9158;51.528;7.192;2022-09-09T02:14:23;15.20;99.90
18067;DHT22;9158;51.528;7.192;2022-09-09T02:15:02;16.20;99.90
18067;DHT22;9158;51.528;7.192;2022-09-09T02:15:45;15.20;99.90
18067;DHT22;9158;51.528;7.192;2022-09-09T02:16:23;15.20;99.90
18067;DHT22;9158;51.528;7.192;2022-09-09T02:16:59;15.30;99.90
18067;DHT22;9158;51.528;7.192;2022-09-09T02:17:44;15.20;99.90
18067;DHT22;9158;51.528;7.192;2022-09-09T02:18:25;15.20;99.90
18067;DHT22;9158;51.528;7.192;2022-09-09T02:19:01;15.30;99.90
18067;DHT22;9158;51.528;7.192;2022-09-09T02:19:47;15.20;99.90
18067;DHT22;9158;51.528;7.192;2022-09-09T02:20:42;15.30;99.90
18067;DHT22;9158;51.528;7.192;2022-09-09T02:21:14;15.30;99.90
18067;DHT22;9158;51.528;7.192;2022-09-09T02:21:47;15.20;99.90
18067;DHT22;9158;51.528;7.192;2022-09-09T02:22:22;15.30;99.90
18067;DHT22;9158;51.528;7.192;2022-09-09T02:22:54;15.30;99.90
18067;DHT22;9158;51.528;7.192;2022-09-09T02:23:28;15.20;99.90
18067;DHT22;9158;51.528;7.192;2022-09-09T02:24:03;15.20;99.90
18067;DHT22;9158;51.528;7.192;2022-09-09T02:24:40;15.20;99.90
18067;DHT22;9158;51.528;7.192;2022-09-09T02:25:26;15.30;99.90
18067;DHT22;9158;51.528;7.192;2022-09-09T02:26:03;15.20;99.90
18067;DHT22;9158;51.528;7.192;2022-09-09T02:26:39;15.20;99.90
18067;DHT22;9158;51.528;7.192;2022-09-09T02:27:12;15.20;99.90
18067;DHT22;9158;51.528;7.192;2022-09-09T02:27:47;15.30;99.90
18067;DHT22;9158;51.528;7.192;2022-09-09T02:28:22;15.20;99.90
18067;DHT22;9158;51.528;7.192;2022-09-09T02:28:57;15.20;99.90
18067;DHT22;9158;51.528;7.192;2022-09-09T02:29:33;15.20;99.90
18067;DHT22;9158;51.528;7.192;2022-09-09T02:30:07;15.30;99.90
18067;DHT22;9158;51.528;7.192;2022-09-09T02:30:48;15.20;99.90
18067;DHT22;9158;51.528;7.192;2022-09-09T02:31:24;15.20;99.90
18067;DHT22;9158;51.528;7.192;2022-09-09T02:32:05;15.20;99.90
18067;DHT22;9158;51.528;7.192;2022-09-09T02:32:42;15.30;99.90
18067;DHT22;9158;51.528;7.192;2022-09-09T02:33:16;15.30;99.90
18067;DHT22;9158;51.528;7.192;2022-09-09T02:33:54;15.30;99.90
18067;DHT22;9158;51.528;7.192;2022-09-09T02:34:27;15.30;99.90
18067;DHT22;9158;51.528;7.192;2022-09-09T02:35:03;15.30;99.90
18067;DHT22;9158;51.528;7.192;2022-09-09T02:35:37;15.30;99.90
18067;DHT22;9158;51.528;7.192;2022-09-09T02:36:10;15.30;99.90
18067;DHT22;9158;51.528;7.192;2022-09-09T02:36:45;15.30;99.90
18067;DHT22;9158;51.528;7.192;2022-09-09T02:37:19;15.30;99.90
18067;DHT22;9158;51.528;7.192;2022-09-09T02:37:56;15.30;99.90
18067;DHT22;9158;51.528;7.192;2022-09-09T02:38:33;15.30;99.90
18067;DHT22;9158;51.528;7.192;2022-09-09T02:39:13;15.30;99.90
18067;DHT22;9158;51.528;7.192;2022-09-09T02:39:44;15.30;99.90
18067;DHT22;9158;51.528;7.192;2022-09-09T02:40:19;15.30;99.90
18067;DHT22;9158;51.528;7.192;2022-09-09T02:40:58;15.30;99.90
18067;DHT22;9158;51.528;7.192;2022-09-09T02:41:32;15.30;99.90
18067;DHT22;9158;51.528;7.192;2022-09-09T02:42:04;15.30;99.90
18067;DHT22;9158;51.528;7.192;2022-09-09T02:42:39;15.30;99.90
18067;DHT22;9158;51.528;7.192;2022-09-09T02:43:14;15.30;99.90
18067;DHT22;9158;51.528;7.192;2022-09-09T02:43:47;15.30;99.90
18067;DHT22;9158;51.528;7.192;2022-09-09T02:44:19;15.30;99.90
18067;DHT22;9158;51.528;7.192;2022-09-09T02:44:54;15.30;99.90
18067;DHT22;9158;51.528;7.192;2022-09-09T02:45:29;15.30;99.90
18067;DHT22;9158;51.528;7.192;2022-09-09T02:46:08;15.30;99.90
18067;DHT22;9158;51.528;7.192;2022-09-09T02:46:56;15.30;99.90
18067;DHT22;9158;51.528;7.192;2022-09-09T02:47:33;15.30;99.90
18067;DHT22;9158;51.528;7.192;2022-09-09T02:48:17;15.30;99.90
18067;DHT22;9158;51.528;7.192;2022-09-09T02:48:55;17.00;99.90
18067;DHT22;9158;51.528;7.192;2022-09-09T02:49:42;15.30;99.90
18067;DHT22;9158;51.528;7.192;2022-09-09T02:50:20;15.40;99.90
18067;DHT22;9158;51.528;7.192;2022-09-09T02:50:59;15.30;99.90
18067;DHT22;9158;51.528;7.192;2022-09-09T02:51:40;15.40;99.90
18067;DHT22;9158;51.528;7.192;2022-09-09T02:52:19;15.40;99.90
18067;DHT22;9158;51.528;7.192;2022-09-09T02:53:05;15.40;99.90
18067;DHT22;9158;51.528;7.192;2022-09-09T02:53:50;15.40;99.90
18067;DHT22;9158;51.528;7.192;2022-09-09T02:54:28;15.40;99.90
18067;DHT22;9158;51.528;7.192;2022-09-09T02:55:07;15.40;99.90
18067;DHT22;9158;51.528;7.192;2022-09-09T02:55:41;15.40;99.90
18067;DHT22;9158;51.528;7.192;2022-09-09T02:56:21;15.40;99.90
18067;DHT22;9158;51.528;7.192;2022-09-09T02:56:54;15.40;99.90
18067;DHT22;9158;51.528;7.192;2022-09-09T02:57:31;15.40;99.90
18067;DHT22;9158;51.528;7.192;2022-09-09T02:58:06;15.40;99.90
18067;DHT22;9158;51.528;7.192;2022-09-09T02:58:41;15.40;99.90
18067;DHT22;9158;51.528;7.192;2022-09-09T02:59:12;15.40;99.90
18067;DHT22;9158;51.528;7.192;2022-09-09T02:59:45;15.40;99.90
18067;DHT22;9158;51.528;7.192;2022-09-09T03:00:23;15.40;99.90
18067;DHT22;9158;51.528;7.192;2022-09-09T03:00:56;15.40;99.90
18067;DHT22;9158;51.528;7.192;2022-09-09T03:01:30;15.40;99.90
18067;DHT22;9158;51.528;7.192;2022-09-09T03:02:01;15.40;99.90
18067;DHT22;9158;51.528;7.192;2022-09-09T03:02:32;15.40;99.90
18067;DHT22;9158;51.528;7.192;2022-09-09T03:03:09;15.40;99.90
18067;DHT22;9158;51.528;7.192;2022-09-09T03:03:41;15.40;99.90
18067;DHT22;9158;51.528;7.192;2022-09-09T03:04:16;15.40;99.90
18067;DHT22;9158;51.528;7.192;2022-09-09T03:04:48;15.40;99.90
18067;DHT22;9158;51.528;7.192;2022-09-09T03:05:22;15.40;99.90
18067;DHT22;9158;51.528;7.192;2022-09-09T03:05:54;15.40;99.90
18067;DHT22;9158;51.528;7.192;2022-09-09T03:06:27;15.40;99.90
18067;DHT22;9158;51.528;7.192;2022-09-09T03:07:06;15.40;99.90
18067;DHT22;9158;51.528;7.192;2022-09-09T03:07:37;15.40;99.90
18067;DHT22;9158;51.528;7.192;2022-09-09T03:08:11;15.50;99.90
18067;DHT22;9158;51.528;7.192;2022-09-09T03:08:44;15.50;99.90
18067;DHT22;9158;51.528;7.192;2022-09-09T03:09:15;15.50;99.90
18067;DHT22;9158;51.528;7.192;2022-09-09T03:09:47;15.50;99.90
18067;DHT22;9158;51.528;7.192;2022-09-09T03:10:19;15.50;99.90
18067;DHT22;9158;51.528;7.192;2022-09-09T03:10:50;15.50;99.90
18067;DHT22;9158;51.528;7.192;2022-09-09T03:11:24;15.50;99.90
18067;DHT22;9158;51.528;7.192;2022-09-09T03:11:55;15.50;99.90
18067;DHT22;9158;51.528;7.192;2022-09-09T03:12:27;15.50;99.90
18067;DHT22;9158;51.528;7.192;2022-09-09T03:12:59;15.50;99.90
18067;DHT22;9158;51.528;7.192;2022-09-09T03:13:32;15.50;99.90
18067;DHT22;9158;51.528;7.192;2022-09-09T03:14:04;15.50;99.90
18067;DHT22;9158;51.528;7.192;2022-09-09T03:14:37;15.50;99.90
18067;DHT22;9158;51.528;7.192;2022-09-09T03:15:09;15.50;99.90
18067;DHT22;9158;51.528;7.192;2022-09-09T03:15:41;15.50;99.90
18067;DHT22;9158;51.528;7.192;2022-09-09T03:16:19;15.50;99.90
18067;DHT22;9158;51.528;7.192;2022-09-09T03:16:53;15.50;99.90
18067;DHT22;9158;51.528;7.192;2022-09-09T03:17:25;15.50;99.90
18067;DHT22;9158;51.528;7.192;2022-09-09T03:17:59;15.50;99.90
18067;DHT22;9158;51.528;7.192;2022-09-09T03:18:30;15.50;99.90
18067;DHT22;9158;51.528;7.192;2022-09-09T03:19:02;15.50;99.90
18067;DHT22;9158;51.528;7.192;2022-09-09T03:19:35;15.60;99.90
18067;DHT22;9158;51.528;7.192;2022-09-09T03:20:07;15.60;99.90
18067;DHT22;9158;51.528;7.192;2022-09-09T03:20:42;15.50;99.90
18067;DHT22;9158;51.528;7.192;2022-09-09T03:21:15;15.60;99.90
18067;DHT22;9158;51.528;7.192;2022-09-09T03:21:47;15.60;99.90
18067;DHT22;9158;51.528;7.192;2022-09-09T03:22:18;15.60;99.90
18067;DHT22;9158;51.528;7.192;2022-09-09T03:22:51;15.60;99.90
18067;DHT22;9158;51.528;7.192;2022-09-09T03:23:22;15.60;99.90
18067;DHT22;9158;51.528;7.192;2022-09-09T03:23:54;15.60;99.90
18067;DHT22;9158;51.528;7.192;2022-09-09T03:24:26;15.60;99.90
18067;DHT22;9158;51.528;7.192;2022-09-09T03:24:58;15.60;99.90
18067;DHT22;9158;51.528;7.192;2022-09-09T03:25:29;15.60;99.90
18067;DHT22;9158;51.528;7.192;2022-09-09T03:26:00;15.60;99.90
18067;DHT22;9158;51.528;7.192;2022-09-09T03:26:42;15.60;99.90
18067;DHT22;9158;51.528;7.192;2022-09-09T03:27:17;15.60;99.90
18067;DHT22;9158;51.528;7.192;2022-09-09T03:27:48;15.60;99.90
18067;DHT22;9158;51.528;7.192;2022-09-09T03:28:21;15.60;99.90
18067;DHT22;9158;51.528;7.192;2022-09-09T03:28:52;15.60;99.90
18067;DHT22;9158;51.528;7.192;2022-09-09T03:29:27;15.60;99.90
18067;DHT22;9158;51.528;7.192;2022-09-09T03:30:01;15.60;99.90
18067;DHT22;9158;51.528;7.192;2022-09-09T03:30:34;15.60;99.90
18067;DHT22;9158;51.528;7.192;2022-09-09T03:31:06;15.60;99.90
18067;DHT22;9158;51.528;7.192;2022-09-09T03:31:44;15.60;99.90
18067;DHT22;9158;51.528;7.192;2022-09-09T03:32:16;15.60;99.90
18067;DHT22;9158;51.528;7.192;2022-09-09T03:32:48;15.60;99.90
18067;DHT22;9158;51.528;7.192;2022-09-09T03:33:20;15.60;99.90
18067;DHT22;9158;51.528;7.192;2022-09-09T03:33:51;15.60;99.90
18067;DHT22;9158;51.528;7.192;2022-09-09T03:34:24;15.60;99.90
18067;DHT22;9158;51.528;7.192;2022-09-09T03:34:55;15.60;99.90
18067;DHT22;9158;51.528;7.192;2022-09-09T03:35:27;15.60;99.90
18067;DHT22;9158;51.528;7.192;2022-09-09T03:35:58;15.60;99.90
18067;DHT22;9158;51.528;7.192;2022-09-09T03:36:29;15.60;99.90
18067;DHT22;9158;51.528;7.192;2022-09-09T03:37:01;15.60;99.90
18067;DHT22;9158;51.528;7.192;2022-09-09T03:37:33;15.70;99.90
18067;DHT22;9158;51.528;7.192;2022-09-09T03:38:04;15.60;99.90
18067;DHT22;9158;51.528;7.192;2022-09-09T03:38:38;15.60;99.90
18067;DHT22;9158;51.528;7.192;2022-09-09T03:39:10;15.70;99.90
18067;DHT22;9158;51.528;7.192;2022-09-09T03:39:43;15.60;99.90
18067;DHT22;9158;51.528;7.192;2022-09-09T03:40:14;15.60;99.90
18067;DHT22;9158;51.528;7.192;2022-09-09T03:40:51;15.60;99.90
18067;DHT22;9158;51.528;7.192;2022-09-09T03:41:23;15.60;99.90
18067;DHT22;9158;51.528;7.192;2022-09-09T03:41:54;15.60;99.90
18067;DHT22;9158;51.528;7.192;2022-09-09T03:42:26;15.60;99.90
18067;DHT22;9158;51.528;7.192;2022-09-09T03:42:59;15.60;99.90
18067;DHT22;9158;51.528;7.192;2022-09-09T03:43:30;15.60;99.90
18067;DHT22;9158;51.528;7.192;2022-09-09T03:44:03;15.60;99.90
18067;DHT22;9158;51.528;7.192;2022-09-09T03:44:41;15.60;99.90
18067;DHT22;9158;51.528;7.192;2022-09-09T03:45:12;15.60;99.90
18067;DHT22;9158;51.528;7.192;2022-09-09T03:45:46;15.60;99.90
18067;DHT22;9158;51.528;7.192;2022-09-09T03:46:18;15.50;99.90
18067;DHT22;9158;51.528;7.192;2022-09-09T03:46:49;15.60;99.90
18067;DHT22;9158;51.528;7.192;2022-09-09T03:47:21;15.50;99.90
18067;DHT22;9158;51.528;7.192;2022-09-09T03:47:54;15.50;99.90
18067;DHT22;9158;51.528;7.192;2022-09-09T03:48:26;15.50;99.90
18067;DHT22;9158;51.528;7.192;2022-09-09T03:48:58;15.50;99.90
18067;DHT22;9158;51.528;7.192;2022-09-09T03:49:30;15.50;99.90
18067;DHT22;9158;51.528;7.192;2022-09-09T03:50:02;15.50;99.90
18067;DHT22;9158;51.528;7.192;2022-09-09T03:50:34;15.50;99.90
18067;DHT22;9158;51.528;7.192;2022-09-09T03:51:06;15.50;99.90
18067;DHT22;9158;51.528;7.192;2022-09-09T03:51:38;15.50;99.90
18067;DHT22;9158;51.528;7.192;2022-09-09T03:52:11;15.50;99.90
18067;DHT22;9158;51.528;7.192;2022-09-09T03:52:43;15.50;99.90
18067;DHT22;9158;51.528;7.192;2022-09-09T03:53:22;15.50;99.90
18067;DHT22;9158;51.528;7.192;2022-09-09T03:53:53;15.50;99.90
18067;DHT22;9158;51.528;7.192;2022-09-09T03:54:27;15.40;99.90
18067;DHT22;9158;51.528;7.192;2022-09-09T03:55:00;15.40;99.90
18067;DHT22;9158;51.528;7.192;2022-09-09T03:55:32;15.50;99.90
18067;DHT22;9158;51.528;7.192;2022-09-09T03:56:05;15.40;99.90
18067;DHT22;9158;51.528;7.192;2022-09-09T03:56:37;15.50;99.90